Time;durP1;ratioP1;P1;durP2;ratioP2;P2;SDS_P1;SDS_P2;PMS_P1;PMS_P2;Temp;Humidity;BMP_temperature;BMP_pressure;BME280_temperature;BME280_humidity;BME280_pressure;Samples;Min_cycle;Max_cycle;Signal;HPM_P1;HPM_P2
2022/11/17 00:01:20;;;;;;;73.40;39.50;;;;;;;;;;5112847;28;20046;-75
2022/11/17 00:03:48;;;;;;;70.95;39.40;;;;;;;;;;5112755;28;20075;-75
2022/11/17 00:06:19;;;;;;;72.40;39.05;;;;;;;;;;5112901;28;20114;-76
2022/11/17 00:08:47;;;;;;;74.05;38.33;;;;;;;;;;5112905;28;20040;-75
2022/11/17 00:11:14;;;;;;;70.78;38.47;;;;;;;;;;5111901;28;20425;-75
2022/11/17 00:16:28;;;;;;;77.25;39.90;;;;;;;;;;5112673;28;20039;-75
2022/11/17 00:21:41;;;;;;;75.95;39.80;;;;;;;;;;5112827;28;20055;-76
2022/11/17 00:24:09;;;;;;;73.63;38.67;;;;;;;;;;5115073;28;20049;-75
2022/11/17 00:27:00;;;;;;;76.05;39.70;;;;;;;;;;5116610;28;20036;-75
2022/11/17 00:29:27;;;;;;;72.45;39.60;;;;;;;;;;5116675;28;20040;-75
2022/11/17 00:34:41;;;;;;;75.72;39.67;;;;;;;;;;5116446;28;20078;-75
2022/11/17 00:37:09;;;;;;;76.75;40.05;;;;;;;;;;5116622;28;20039;-75
2022/11/17 00:39:37;;;;;;;74.32;40.55;;;;;;;;;;5116555;28;20393;-75
2022/11/17 00:42:04;;;;;;;71.63;39.67;;;;;;;;;;5116123;28;20126;-75
2022/11/17 00:44:31;;;;;;;75.53;40.17;;;;;;;;;;5116194;28;20044;-75
2022/11/17 00:46:59;;;;;;;77.30;40.15;;;;;;;;;;5114976;28;20409;-75
2022/11/17 00:49:26;;;;;;;70.32;38.75;;;;;;;;;;5116100;28;20040;-75
2022/11/17 00:51:54;;;;;;;73.00;38.35;;;;;;;;;;5116058;28;20115;-75
2022/11/17 00:54:22;;;;;;;74.40;41.33;;;;;;;;;;5116139;28;20043;-75
2022/11/17 00:56:50;;;;;;;76.22;41.08;;;;;;;;;;5114613;28;20063;-75
2022/11/17 00:59:17;;;;;;;75.88;40.75;;;;;;;;;;5116315;28;20040;-75
2022/11/17 01:01:45;;;;;;;77.10;40.13;;;;;;;;;;5115931;28;20070;-75
2022/11/17 01:04:14;;;;;;;71.65;39.90;;;;;;;;;;5115800;28;20134;-75
2022/11/17 01:06:45;;;;;;;78.63;40.88;;;;;;;;;;5115462;28;20051;-75
2022/11/17 01:09:20;;;;;;;78.43;40.97;;;;;;;;;;5115643;28;20055;-75
2022/11/17 01:11:48;;;;;;;75.25;41.03;;;;;;;;;;5115416;28;20114;-75
2022/11/17 01:14:20;;;;;;;69.22;39.45;;;;;;;;;;5115622;28;20067;-75
2022/11/17 01:16:47;;;;;;;69.45;39.63;;;;;;;;;;5115645;28;20393;-76
2022/11/17 01:19:15;;;;;;;70.90;40.60;;;;;;;;;;5115475;28;20067;-75
2022/11/17 01:21:43;;;;;;;72.97;41.08;;;;;;;;;;5115508;28;20062;-75
2022/11/17 01:24:11;;;;;;;72.57;39.95;;;;;;;;;;5114190;28;20073;-75
2022/11/17 01:26:39;;;;;;;71.75;38.95;;;;;;;;;;5115374;28;20444;-76
2022/11/17 01:29:07;;;;;;;68.88;38.10;;;;;;;;;;5115291;28;20043;-75
2022/11/17 01:31:36;;;;;;;66.57;38.00;;;;;;;;;;5115179;28;20106;-75
2022/11/17 01:34:03;;;;;;;68.20;37.67;;;;;;;;;;5115256;28;20096;-75
2022/11/17 01:37:17;;;;;;;65.65;37.20;;;;;;;;;;5114531;28;20040;-75
2022/11/17 01:39:23;;;;;;;63.33;36.28;;;;;;;;;;5115064;28;20119;-75
2022/11/17 01:41:50;;;;;;;66.20;36.28;;;;;;;;;;5115078;28;20067;-75
2022/11/17 01:44:37;;;;;;;67.40;36.42;;;;;;;;;;5114923;28;20516;-75
2022/11/17 01:47:05;;;;;;;69.50;37.92;;;;;;;;;;5114952;28;20035;-75
2022/11/17 01:49:33;;;;;;;70.30;37.35;;;;;;;;;;5114863;28;20043;-75
2022/11/17 01:52:06;;;;;;;69.38;36.70;;;;;;;;;;5114941;28;20042;-75
2022/11/17 01:54:35;;;;;;;64.50;35.03;;;;;;;;;;5114809;28;20040;-75
2022/11/17 01:57:05;;;;;;;68.00;36.47;;;;;;;;;;5114613;28;20066;-75
2022/11/17 01:59:36;;;;;;;67.45;36.35;;;;;;;;;;5114884;28;20043;-75
2022/11/17 02:02:03;;;;;;;65.80;36.45;;;;;;;;;;5114812;28;20480;-75
2022/11/17 02:04:34;;;;;;;71.55;38.10;;;;;;;;;;5114896;28;20066;-75
2022/11/17 02:07:05;;;;;;;70.68;36.50;;;;;;;;;;5114584;28;20035;-75
2022/11/17 02:09:32;;;;;;;70.72;36.95;;;;;;;;;;5114620;28;20055;-75
2022/11/17 02:12:00;;;;;;;67.97;36.72;;;;;;;;;;5114468;28;20122;-75
2022/11/17 02:14:28;;;;;;;67.35;36.88;;;;;;;;;;5114497;28;20031;-75
2022/11/17 02:16:55;;;;;;;64.78;35.22;;;;;;;;;;5114394;28;20715;-75
2022/11/17 02:19:27;;;;;;;67.88;36.20;;;;;;;;;;5114251;28;20123;-75
2022/11/17 02:22:13;;;;;;;64.80;36.40;;;;;;;;;;5114214;28;20047;-75
2022/11/17 02:24:41;;;;;;;65.90;35.25;;;;;;;;;;5114156;28;20473;-75
2022/11/17 02:27:26;;;;;;;65.15;36.15;;;;;;;;;;5114230;28;20067;-75
2022/11/17 02:30:12;;;;;;;63.58;35.47;;;;;;;;;;5113996;28;20054;-75
2022/11/17 02:33:02;;;;;;;58.67;33.90;;;;;;;;;;5114173;28;20035;-75
2022/11/17 02:35:32;;;;;;;61.80;34.45;;;;;;;;;;5112728;28;20044;-75
2022/11/17 02:38:06;;;;;;;66.20;34.95;;;;;;;;;;5113984;28;20485;-74
2022/11/17 02:40:35;;;;;;;59.55;34.13;;;;;;;;;;5113958;28;20510;-74
2022/11/17 02:45:56;;;;;;;65.22;33.65;;;;;;;;;;5113527;28;20500;-74
2022/11/17 02:48:27;;;;;;;65.03;33.42;;;;;;;;;;5113050;28;20050;-75
2022/11/17 02:50:55;;;;;;;54.78;32.03;;;;;;;;;;5113617;28;20043;-75
2022/11/17 02:53:24;;;;;;;55.05;31.25;;;;;;;;;;5113703;28;20088;-75
2022/11/17 02:55:52;;;;;;;56.97;31.77;;;;;;;;;;5113601;28;20420;-74
2022/11/17 02:58:20;;;;;;;55.40;30.95;;;;;;;;;;5112812;28;20405;-75
2022/11/17 03:01:06;;;;;;;49.78;29.92;;;;;;;;;;5113752;28;20039;-74
2022/11/17 03:03:42;;;;;;;52.83;30.70;;;;;;;;;;5113503;28;20040;-74
2022/11/17 03:06:10;;;;;;;52.58;28.45;;;;;;;;;;5113524;28;20058;-75
2022/11/17 03:08:40;;;;;;;50.95;29.35;;;;;;;;;;5112306;28;20452;-75
2022/11/17 03:11:08;;;;;;;49.90;28.77;;;;;;;;;;5113392;28;20401;-74
2022/11/17 03:13:54;;;;;;;50.92;29.27;;;;;;;;;;5113456;28;20142;-75
2022/11/17 03:16:38;;;;;;;49.13;29.00;;;;;;;;;;5113551;28;20060;-75
2022/11/17 03:19:05;;;;;;;48.05;26.80;;;;;;;;;;5112952;28;20085;-75
2022/11/17 03:21:33;;;;;;;52.38;30.40;;;;;;;;;;5113209;28;20126;-75
2022/11/17 03:24:00;;;;;;;52.90;29.48;;;;;;;;;;5112997;28;20130;-75
2022/11/17 03:26:30;;;;;;;48.67;29.58;;;;;;;;;;5113148;28;20067;-75
2022/11/17 03:28:58;;;;;;;47.20;28.50;;;;;;;;;;5112836;28;20079;-75
2022/11/17 03:31:27;;;;;;;46.40;28.25;;;;;;;;;;5113243;28;20046;-75
2022/11/17 03:33:55;;;;;;;49.08;29.48;;;;;;;;;;5113184;27;20041;-75
2022/11/17 03:36:26;;;;;;;50.42;28.50;;;;;;;;;;5113147;28;20044;-75
2022/11/17 03:38:58;;;;;;;48.33;27.92;;;;;;;;;;5113122;28;20039;-75
2022/11/17 03:41:28;;;;;;;49.20;29.10;;;;;;;;;;5113090;28;20374;-75
2022/11/17 03:43:57;;;;;;;51.38;29.02;;;;;;;;;;5113279;28;20130;-76
2022/11/17 03:46:26;;;;;;;49.50;29.55;;;;;;;;;;5112904;28;20602;-75
2022/11/17 03:48:57;;;;;;;50.80;29.08;;;;;;;;;;5112964;28;20158;-75
2022/11/17 03:51:26;;;;;;;49.58;28.83;;;;;;;;;;5112999;28;20134;-75
2022/11/17 03:53:54;;;;;;;48.67;28.98;;;;;;;;;;5113010;28;20075;-75
2022/11/17 03:56:30;;;;;;;52.80;28.95;;;;;;;;;;5111700;28;20040;-75
2022/11/17 03:59:04;;;;;;;50.28;29.85;;;;;;;;;;5115114;28;20050;-75
2022/11/17 04:01:33;;;;;;;52.92;29.48;;;;;;;;;;5117061;28;20477;-75
2022/11/17 04:04:00;;;;;;;47.40;27.65;;;;;;;;;;5116902;28;20047;-75
2022/11/17 04:06:28;;;;;;;49.58;29.45;;;;;;;;;;5116875;28;20070;-76
2022/11/17 04:08:55;;;;;;;53.05;29.67;;;;;;;;;;5116975;28;20126;-75
2022/11/17 04:16:55;;;;;;;51.15;29.33;;;;;;;;;;5117084;28;20043;-75
2022/11/17 04:19:22;;;;;;;48.83;29.65;;;;;;;;;;5115350;28;20043;-75
2022/11/17 04:21:49;;;;;;;49.45;28.40;;;;;;;;;;5116712;28;20534;-75
2022/11/17 04:24:17;;;;;;;46.58;28.17;;;;;;;;;;5116519;28;20564;-75
2022/11/17 04:29:32;;;;;;;50.72;29.20;;;;;;;;;;5116120;28;20043;-75
2022/11/17 04:32:00;;;;;;;49.55;28.73;;;;;;;;;;5116395;28;20048;-75
2022/11/17 04:34:27;;;;;;;49.95;28.52;;;;;;;;;;5116577;28;20120;-75
2022/11/17 04:36:55;;;;;;;45.47;28.00;;;;;;;;;;5115509;28;20423;-76
2022/11/17 04:39:22;;;;;;;48.10;28.10;;;;;;;;;;5116745;28;20138;-75
2022/11/17 04:41:53;;;;;;;42.25;27.27;;;;;;;;;;5116320;28;20036;-75
2022/11/17 04:44:22;;;;;;;49.97;28.15;;;;;;;;;;5116252;28;20505;-75
2022/11/17 04:46:49;;;;;;;52.08;29.45;;;;;;;;;;5116633;28;20063;-77
2022/11/17 04:49:17;;;;;;;58.65;31.42;;;;;;;;;;5119444;28;20049;-77
2022/11/17 04:51:45;;;;;;;60.00;33.13;;;;;;;;;;5118256;28;20501;-76
2022/11/17 04:54:14;;;;;;;78.15;37.33;;;;;;;;;;5115945;28;20047;-76
2022/11/17 04:56:41;;;;;;;73.03;36.85;;;;;;;;;;5120800;28;20461;-77
2022/11/17 04:59:09;;;;;;;58.17;33.70;;;;;;;;;;5128403;28;20036;-76
2022/11/17 05:01:37;;;;;;;71.78;38.75;;;;;;;;;;5120536;28;20500;-76
2022/11/17 05:04:05;;;;;;;77.50;39.78;;;;;;;;;;5117729;27;20044;-76
2022/11/17 05:06:40;;;;;;;66.00;36.33;;;;;;;;;;5117006;28;20124;-76
2022/11/17 05:09:09;;;;;;;52.07;31.07;;;;;;;;;;5117760;28;20122;-76
2022/11/17 05:14:23;;;;;;;84.35;42.22;;;;;;;;;;5122447;28;20086;-77
2022/11/17 05:17:07;;;;;;;90.50;46.85;;;;;;;;;;5118935;28;20032;-77
2022/11/17 05:19:45;;;;;;;78.72;43.97;;;;;;;;;;5115468;28;20043;-77
2022/11/17 05:25:01;;;;;;;61.30;35.72;;;;;;;;;;5115781;28;20066;-77
2022/11/17 05:27:28;;;;;;;63.28;38.17;;;;;;;;;;5116458;28;20066;-77
2022/11/17 05:29:55;;;;;;;69.07;39.50;;;;;;;;;;5114235;28;20046;-78
2022/11/17 05:32:23;;;;;;;64.97;36.03;;;;;;;;;;5120039;28;20065;-77
2022/11/17 05:34:51;;;;;;;75.32;42.10;;;;;;;;;;5115474;28;20052;-76
2022/11/17 05:37:18;;;;;;;62.20;36.00;;;;;;;;;;5115222;28;20378;-76
2022/11/17 05:39:45;;;;;;;55.58;32.50;;;;;;;;;;5115639;28;20147;-77
2022/11/17 05:42:13;;;;;;;58.10;35.05;;;;;;;;;;5120615;28;20054;-79
2022/11/17 05:44:40;;;;;;;66.03;37.10;;;;;;;;;;5122041;28;20031;-78
2022/11/17 05:47:08;;;;;;;66.60;38.47;;;;;;;;;;5120777;28;20059;-76
2022/11/17 05:49:35;;;;;;;54.05;32.25;;;;;;;;;;5116586;28;20563;-77
2022/11/17 05:52:02;;;;;;;50.25;31.65;;;;;;;;;;5114467;28;20126;-77
2022/11/17 05:54:30;;;;;;;52.92;31.83;;;;;;;;;;5114591;28;20044;-77
2022/11/17 05:57:03;;;;;;;52.65;31.95;;;;;;;;;;5113748;28;20078;-77
2022/11/17 05:59:58;;;;;;;57.78;34.30;;;;;;;;;;5114750;28;20040;-77
2022/11/17 06:02:28;;;;;;;53.53;31.77;;;;;;;;;;5112657;28;20401;-77
2022/11/17 06:04:56;;;;;;;52.67;30.73;;;;;;;;;;5114429;28;20307;-77
2022/11/17 06:07:23;;;;;;;61.28;34.00;;;;;;;;;;5114810;28;20126;-76
2022/11/17 06:09:51;;;;;;;48.50;31.08;;;;;;;;;;5114854;27;20043;-77
2022/11/17 06:12:18;;;;;;;44.08;27.70;;;;;;;;;;5114433;28;20063;-77
2022/11/17 06:14:46;;;;;;;43.42;26.73;;;;;;;;;;5114542;28;20035;-77
2022/11/17 06:17:22;;;;;;;41.20;26.70;;;;;;;;;;5114784;28;20070;-77
2022/11/17 06:19:55;;;;;;;53.15;32.88;;;;;;;;;;5114430;28;20518;-77
2022/11/17 06:22:25;;;;;;;73.43;43.92;;;;;;;;;;5114249;28;20482;-77
2022/11/17 06:24:52;;;;;;;49.63;31.85;;;;;;;;;;5114345;28;20039;-77
2022/11/17 06:27:21;;;;;;;40.45;27.83;;;;;;;;;;5114436;28;20040;-77
2022/11/17 06:29:49;;;;;;;41.22;25.90;;;;;;;;;;5114265;28;20497;-77
2022/11/17 06:32:18;;;;;;;40.50;26.30;;;;;;;;;;5114217;28;20036;-76
2022/11/17 06:34:47;;;;;;;40.17;27.33;;;;;;;;;;5114394;28;20397;-77
2022/11/17 06:37:22;;;;;;;51.05;33.10;;;;;;;;;;5114057;28;20043;-76
2022/11/17 06:39:50;;;;;;;50.92;36.38;;;;;;;;;;5114092;28;20439;-77
2022/11/17 06:42:17;;;;;;;52.63;34.60;;;;;;;;;;5114291;28;20097;-77
2022/11/17 06:44:45;;;;;;;47.40;31.90;;;;;;;;;;5113929;28;20086;-77
2022/11/17 06:47:12;;;;;;;52.05;36.08;;;;;;;;;;5114315;28;20539;-77
2022/11/17 06:49:39;;;;;;;50.70;36.38;;;;;;;;;;5113876;28;20040;-77
2022/11/17 06:52:07;;;;;;;54.03;38.75;;;;;;;;;;5113861;27;20051;-77
2022/11/17 06:54:34;;;;;;;60.30;43.83;;;;;;;;;;5113992;28;20126;-77
2022/11/17 06:57:01;;;;;;;78.57;59.47;;;;;;;;;;5112428;28;20048;-77
2022/11/17 06:59:29;;;;;;;90.07;69.47;;;;;;;;;;5114237;28;20427;-77
2022/11/17 07:01:56;;;;;;;88.15;65.28;;;;;;;;;;5113628;28;20035;-77
2022/11/17 07:04:24;;;;;;;91.13;66.00;;;;;;;;;;5113628;28;20043;-77
2022/11/17 07:06:51;;;;;;;79.10;60.03;;;;;;;;;;5113475;28;20036;-77
2022/11/17 07:09:19;;;;;;;71.43;50.88;;;;;;;;;;5113596;28;20122;-77
2022/11/17 07:11:46;;;;;;;64.00;45.78;;;;;;;;;;5112440;28;20117;-77
2022/11/17 07:14:14;;;;;;;67.07;46.67;;;;;;;;;;5113410;28;20497;-77
2022/11/17 07:16:42;;;;;;;61.03;43.65;;;;;;;;;;5113562;28;20053;-77
2022/11/17 07:19:10;;;;;;;50.30;37.80;;;;;;;;;;5113288;28;20513;-77
2022/11/17 07:21:38;;;;;;;49.17;35.47;;;;;;;;;;5113369;28;20044;-77
2022/11/17 07:24:05;;;;;;;52.63;36.08;;;;;;;;;;5113359;28;20474;-77
2022/11/17 07:26:33;;;;;;;51.15;33.92;;;;;;;;;;5113365;28;20040;-77
2022/11/17 07:29:00;;;;;;;47.08;32.13;;;;;;;;;;5113334;28;20043;-77
2022/11/17 07:31:28;;;;;;;46.65;31.38;;;;;;;;;;5113469;28;20050;-77
2022/11/17 07:33:56;;;;;;;49.35;30.27;;;;;;;;;;5112830;28;20043;-77
2022/11/17 07:36:23;;;;;;;47.63;29.95;;;;;;;;;;5111988;28;20039;-77
2022/11/17 07:38:50;;;;;;;42.22;27.80;;;;;;;;;;5113230;28;20032;-77
2022/11/17 07:41:18;;;;;;;41.75;28.80;;;;;;;;;;5112934;28;20058;-77
2022/11/17 07:43:45;;;;;;;40.03;28.17;;;;;;;;;;5113167;28;20043;-77
2022/11/17 07:46:13;;;;;;;41.22;26.67;;;;;;;;;;5112959;28;20039;-77
2022/11/17 07:48:42;;;;;;;38.28;26.75;;;;;;;;;;5113373;28;20127;-77
2022/11/17 07:51:11;;;;;;;38.00;25.92;;;;;;;;;;5112997;28;20064;-77
2022/11/17 07:53:38;;;;;;;38.75;25.48;;;;;;;;;;5111774;28;20031;-77
2022/11/17 07:56:10;;;;;;;43.45;25.67;;;;;;;;;;5112898;28;20063;-76
2022/11/17 07:58:38;;;;;;;36.63;25.23;;;;;;;;;;5112945;28;20400;-76
2022/11/17 08:01:10;;;;;;;41.08;24.58;;;;;;;;;;5113146;28;20044;-77
2022/11/17 08:03:38;;;;;;;35.63;23.38;;;;;;;;;;5113025;28;20493;-76
2022/11/17 08:06:06;;;;;;;34.22;22.60;;;;;;;;;;5112737;28;20047;-77
2022/11/17 08:08:34;;;;;;;33.20;21.85;;;;;;;;;;5112819;28;20070;-76
2022/11/17 08:11:03;;;;;;;27.13;18.38;;;;;;;;;;5112896;28;20089;-77
2022/11/17 08:13:31;;;;;;;26.92;18.30;;;;;;;;;;5112995;28;20393;-76
2022/11/17 08:15:59;;;;;;;31.98;21.05;;;;;;;;;;5113144;28;20040;-76
2022/11/17 08:18:27;;;;;;;24.77;16.17;;;;;;;;;;5113754;28;20418;-76
2022/11/17 08:21:21;;;;;;;27.30;19.45;;;;;;;;;;5113928;28;20089;-76
2022/11/17 08:23:53;;;;;;;38.50;30.15;;;;;;;;;;5111408;28;20051;-76
2022/11/17 08:26:23;;;;;;;34.00;22.38;;;;;;;;;;5113749;28;20054;-75
2022/11/17 08:28:51;;;;;;;25.98;15.27;;;;;;;;;;5112491;28;20417;-76
2022/11/17 08:31:25;;;;;;;17.42;12.50;;;;;;;;;;5113905;28;20113;-76
2022/11/17 08:33:52;;;;;;;14.38;11.07;;;;;;;;;;5113387;28;20452;-76
2022/11/17 08:36:19;;;;;;;29.15;19.52;;;;;;;;;;5114078;28;20043;-76
2022/11/17 08:38:47;;;;;;;21.50;16.85;;;;;;;;;;5114280;28;20101;-76
2022/11/17 08:41:14;;;;;;;22.33;14.73;;;;;;;;;;5112850;28;20474;-76
2022/11/17 08:43:42;;;;;;;20.95;14.85;;;;;;;;;;5113821;28;20039;-76
2022/11/17 08:46:13;;;;;;;16.75;12.15;;;;;;;;;;5116949;28;20118;-76
2022/11/17 08:48:41;;;;;;;15.43;11.00;;;;;;;;;;5116317;28;20115;-76
2022/11/17 08:51:08;;;;;;;18.10;11.00;;;;;;;;;;5116100;28;20048;-76
2022/11/17 08:53:36;;;;;;;16.42;10.55;;;;;;;;;;5115749;28;20385;-76
2022/11/17 08:56:11;;;;;;;24.40;12.32;;;;;;;;;;5114898;28;20078;-76
2022/11/17 08:58:42;;;;;;;16.27;11.15;;;;;;;;;;5115981;27;20118;-76
2022/11/17 09:01:10;;;;;;;18.45;11.15;;;;;;;;;;5115949;28;20065;-76
2022/11/17 09:03:38;;;;;;;16.83;11.25;;;;;;;;;;5115827;28;20054;-76
2022/11/17 09:06:06;;;;;;;13.13;10.20;;;;;;;;;;5115799;28;20043;-76
2022/11/17 09:08:33;;;;;;;17.73;9.90;;;;;;;;;;5115964;28;20109;-75
2022/11/17 09:11:17;;;;;;;16.38;9.63;;;;;;;;;;5115775;28;20040;-75
2022/11/17 09:13:45;;;;;;;15.00;10.15;;;;;;;;;;5115839;28;20039;-75
2022/11/17 09:16:13;;;;;;;14.90;11.10;;;;;;;;;;5116128;28;20040;-76
2022/11/17 09:18:41;;;;;;;15.43;11.25;;;;;;;;;;5116277;28;20063;-75
2022/11/17 09:21:10;;;;;;;13.93;11.07;;;;;;;;;;5116691;28;20039;-75
2022/11/17 09:23:37;;;;;;;15.15;10.43;;;;;;;;;;5116981;28;20063;-75
2022/11/17 09:26:06;;;;;;;16.52;10.13;;;;;;;;;;5116704;28;20054;-75
2022/11/17 09:28:34;;;;;;;17.65;11.05;;;;;;;;;;5117472;28;20043;-76
2022/11/17 09:31:06;;;;;;;16.33;10.85;;;;;;;;;;5118590;28;20054;-76
2022/11/17 09:33:33;;;;;;;14.20;9.90;;;;;;;;;;5118208;28;20043;-75
2022/11/17 09:36:01;;;;;;;15.82;10.05;;;;;;;;;;5116700;28;20069;-75
2022/11/17 09:38:28;;;;;;;15.93;10.82;;;;;;;;;;5118463;28;20032;-76
2022/11/17 09:40:57;;;;;;;16.83;11.05;;;;;;;;;;5119139;28;20569;-76
2022/11/17 09:43:27;;;;;;;17.13;11.55;;;;;;;;;;5117610;27;20766;-76
2022/11/17 09:45:57;;;;;;;16.67;11.95;;;;;;;;;;5118035;28;20441;-76
2022/11/17 09:49:00;;;;;;;18.33;14.07;;;;;;;;;;5118337;28;20035;-76
2022/11/17 09:51:30;;;;;;;20.27;14.55;;;;;;;;;;5049491;28;20062;-75
2022/11/17 09:54:13;;;;;;;25.98;16.20;;;;;;;;;;5122458;28;20477;-76
2022/11/17 09:56:41;;;;;;;27.08;18.15;;;;;;;;;;5121416;28;20047;-76
2022/11/17 09:59:11;;;;;;;27.75;18.98;;;;;;;;;;5123815;28;20039;-77
2022/11/17 10:01:39;;;;;;;24.33;18.45;;;;;;;;;;5124692;28;20068;-77
2022/11/17 10:04:11;;;;;;;29.27;20.08;;;;;;;;;;5124032;28;20123;-76
2022/11/17 10:06:41;;;;;;;27.27;20.55;;;;;;;;;;5118824;28;20043;-77
2022/11/17 10:09:09;;;;;;;28.75;21.48;;;;;;;;;;5115116;28;20043;-77
2022/11/17 10:11:41;;;;;;;33.05;22.67;;;;;;;;;;5116477;28;20043;-77
2022/11/17 10:14:14;;;;;;;32.47;22.85;;;;;;;;;;5115615;28;20054;-77
2022/11/17 10:17:00;;;;;;;31.40;23.02;;;;;;;;;;5115298;28;20546;-76
2022/11/17 10:19:28;;;;;;;32.28;22.95;;;;;;;;;;5117418;28;20378;-76
2022/11/17 10:22:02;;;;;;;35.80;24.23;;;;;;;;;;5117267;28;20039;-75
2022/11/17 10:24:35;;;;;;;33.30;24.23;;;;;;;;;;5119593;28;20039;-76
2022/11/17 10:27:04;;;;;;;35.67;24.80;;;;;;;;;;5118166;28;20075;-77
2022/11/17 10:29:32;;;;;;;36.55;25.35;;;;;;;;;;5116809;28;20090;-75
2022/11/17 10:32:00;;;;;;;33.30;24.15;;;;;;;;;;5119150;28;20044;-77
2022/11/17 10:34:32;;;;;;;29.50;23.40;;;;;;;;;;5115021;28;20497;-75
2022/11/17 10:37:13;;;;;;;32.63;24.13;;;;;;;;;;5114087;28;20414;-76
2022/11/17 10:39:42;;;;;;;30.77;23.30;;;;;;;;;;5114133;28;20493;-77
2022/11/17 10:42:18;;;;;;;32.03;24.58;;;;;;;;;;5113953;28;20031;-76
2022/11/17 10:44:50;;;;;;;30.90;23.30;;;;;;;;;;5114229;28;20031;-76
2022/11/17 10:47:38;;;;;;;31.73;23.75;;;;;;;;;;5113963;28;20493;-76
2022/11/17 10:50:22;;;;;;;32.03;23.95;;;;;;;;;;5113787;28;20508;-76
2022/11/17 10:52:51;;;;;;;28.00;22.05;;;;;;;;;;5113773;28;20036;-75
2022/11/17 10:55:19;;;;;;;27.65;21.58;;;;;;;;;;5113787;28;20044;-76
2022/11/17 10:57:49;;;;;;;25.40;19.00;;;;;;;;;;5113690;28;20047;-75
2022/11/17 11:00:43;;;;;;;29.45;20.73;;;;;;;;;;5113683;28;20039;-75
2022/11/17 11:03:16;;;;;;;25.60;19.38;;;;;;;;;;5110672;28;20118;-76
2022/11/17 11:06:10;;;;;;;25.30;19.35;;;;;;;;;;5113731;28;20385;-75
2022/11/17 11:08:43;;;;;;;25.63;18.42;;;;;;;;;;5085538;28;20138;-76
2022/11/17 11:11:15;;;;;;;22.35;17.15;;;;;;;;;;5113572;28;20036;-76
2022/11/17 11:13:49;;;;;;;23.05;17.10;;;;;;;;;;5113525;28;20344;-75
2022/11/17 11:16:17;;;;;;;20.95;15.65;;;;;;;;;;5113398;28;20072;-75
2022/11/17 11:18:44;;;;;;;23.20;16.50;;;;;;;;;;5113594;28;20132;-77
2022/11/17 11:21:15;;;;;;;20.88;15.55;;;;;;;;;;5113483;28;20047;-76
2022/11/17 11:23:50;;;;;;;23.75;15.73;;;;;;;;;;5113430;28;20465;-76
2022/11/17 11:26:17;;;;;;;;;;;;;;;;;;5113800;28;20074;-76
2022/11/17 11:28:48;;;;;;;21.65;15.35;;;;;;;;;;5113724;28;19923;-76
2022/11/17 11:31:46;;;;;;;21.17;14.25;;;;;;;;;;5113297;28;20040;-76
2022/11/17 11:34:23;;;;;;;20.83;14.50;;;;;;;;;;5113409;28;20477;-76
2022/11/17 11:36:55;;;;;;;18.05;12.70;;;;;;;;;;5113297;28;20086;-76
2022/11/17 11:39:34;;;;;;;17.77;13.15;;;;;;;;;;5113312;28;20040;-76
2022/11/17 11:42:22;;;;;;;11.50;8.90;;;;;;;;;;5113323;28;20130;-76
2022/11/17 11:45:08;;;;;;;9.85;7.50;;;;;;;;;;5111873;28;20043;-77
2022/11/17 11:47:38;;;;;;;8.18;6.50;;;;;;;;;;5113157;28;20051;-76
2022/11/17 11:50:17;;;;;;;7.97;5.47;;;;;;;;;;5113162;28;20127;-77
2022/11/17 11:52:47;;;;;;;7.03;5.20;;;;;;;;;;5113078;28;20044;-77
2022/11/17 11:55:18;;;;;;;8.85;5.75;;;;;;;;;;5113091;28;20050;-74
2022/11/17 11:57:59;;;;;;;9.30;6.50;;;;;;;;;;5113115;28;20039;-73
2022/11/17 12:00:27;;;;;;;7.15;5.43;;;;;;;;;;5113056;28;20420;-75
2022/11/17 12:03:17;;;;;;;9.52;5.65;;;;;;;;;;5113293;28;20366;-74
2022/11/17 12:05:48;;;;;;;7.85;5.50;;;;;;;;;;5102984;28;20056;-76
2022/11/17 12:08:15;;;;;;;13.32;6.22;;;;;;;;;;5112835;28;20043;-77
2022/11/17 12:10:52;;;;;;;9.25;6.05;;;;;;;;;;5112910;28;20075;-77
2022/11/17 12:13:21;;;;;;;9.38;6.28;;;;;;;;;;5111556;28;20082;-74
2022/11/17 12:15:49;;;;;;;9.25;6.82;;;;;;;;;;5113011;28;20059;-74
2022/11/17 12:18:16;;;;;;;8.82;6.00;;;;;;;;;;5112488;28;20392;-72
2022/11/17 12:20:53;;;;;;;10.65;5.40;;;;;;;;;;5115758;28;20044;-73
2022/11/17 12:23:20;;;;;;;7.07;5.35;;;;;;;;;;5116353;28;20047;-73
2022/11/17 12:25:50;;;;;;;9.55;5.68;;;;;;;;;;5114850;28;20477;-73
2022/11/17 12:28:52;;;;;;;9.68;6.10;;;;;;;;;;5116392;28;20067;-73
2022/11/17 12:31:38;;;;;;;8.02;5.53;;;;;;;;;;5072019;28;20068;-75
2022/11/17 12:34:06;;;;;;;7.63;5.82;;;;;;;;;;5116639;28;20058;-75
2022/11/17 12:36:34;;;;;;;9.10;5.68;;;;;;;;;;5116490;28;20036;-76
2022/11/17 12:39:05;;;;;;;7.00;4.63;;;;;;;;;;5116342;28;20050;-74
2022/11/17 12:41:48;;;;;;;5.60;4.40;;;;;;;;;;5116374;28;20543;-75
2022/11/17 12:44:34;;;;;;;8.23;4.32;;;;;;;;;;5116304;28;20047;-75
2022/11/17 12:47:07;;;;;;;6.63;4.53;;;;;;;;;;5116368;28;20084;-76
2022/11/17 12:49:41;;;;;;;6.32;4.65;;;;;;;;;;5115187;28;20043;-76
2022/11/17 12:52:14;;;;;;;7.43;4.50;;;;;;;;;;5116258;28;20043;-75
2022/11/17 12:54:50;;;;;;;7.13;4.90;;;;;;;;;;5116196;28;20476;-76
2022/11/17 12:57:22;;;;;;;5.65;4.60;;;;;;;;;;5116122;28;20048;-76
2022/11/17 13:00:04;;;;;;;7.47;5.13;;;;;;;;;;5116184;28;20038;-76
2022/11/17 13:02:47;;;;;;;6.43;5.10;;;;;;;;;;5116284;28;20040;-77
2022/11/17 13:05:19;;;;;;;7.28;5.60;;;;;;;;;;5115965;28;20049;-76
2022/11/17 13:07:47;;;;;;;9.48;5.60;;;;;;;;;;5115927;28;20043;-76
2022/11/17 13:10:23;;;;;;;8.77;5.57;;;;;;;;;;5115835;28;20092;-75
2022/11/17 13:13:08;;;;;;;7.88;5.28;;;;;;;;;;5116205;28;20123;-77
2022/11/17 13:15:35;;;;;;;7.10;5.40;;;;;;;;;;5115825;28;20035;-76
2022/11/17 13:18:09;;;;;;;6.05;5.20;;;;;;;;;;5115816;28;20044;-76
2022/11/17 13:20:38;;;;;;;6.70;5.25;;;;;;;;;;5115446;28;20532;-76
2022/11/17 13:23:12;;;;;;;8.30;5.68;;;;;;;;;;5115587;28;20092;-76
2022/11/17 13:25:40;;;;;;;5.50;4.90;;;;;;;;;;5115644;28;20046;-76
2022/11/17 13:28:23;;;;;;;7.25;5.88;;;;;;;;;;5116045;28;20046;-76
2022/11/17 13:30:50;;;;;;;9.40;5.45;;;;;;;;;;5114604;28;20065;-76
2022/11/17 13:33:21;;;;;;;6.43;5.68;;;;;;;;;;5115659;27;20040;-76
2022/11/17 13:35:50;;;;;;;7.07;5.45;;;;;;;;;;5115711;28;20111;-77
2022/11/17 13:38:19;;;;;;;7.38;5.32;;;;;;;;;;5115310;28;20110;-76
2022/11/17 13:40:47;;;;;;;7.22;5.68;;;;;;;;;;5115354;28;20493;-76
2022/11/17 13:43:17;;;;;;;7.38;5.32;;;;;;;;;;5115516;28;20047;-76
2022/11/17 13:45:46;;;;;;;8.85;5.55;;;;;;;;;;5115212;28;20043;-76
2022/11/17 13:48:32;;;;;;;7.05;5.72;;;;;;;;;;5115236;28;20091;-77
2022/11/17 13:51:19;;;;;;;9.35;5.28;;;;;;;;;;5115079;28;20044;-77
2022/11/17 13:53:49;;;;;;;7.32;5.88;;;;;;;;;;5115078;28;20097;-77
2022/11/17 13:56:34;;;;;;;6.57;5.32;;;;;;;;;;5115083;28;20456;-77
2022/11/17 13:59:04;;;;;;;7.57;4.65;;;;;;;;;;5114908;28;20043;-76
2022/11/17 14:01:32;;;;;;;7.03;5.32;;;;;;;;;;5113381;28;20071;-76
2022/11/17 14:04:32;;;;;;;7.10;5.22;;;;;;;;;;5114761;28;20039;-77
2022/11/17 14:07:00;;;;;;;6.53;5.20;;;;;;;;;;5070359;28;20055;-76
2022/11/17 14:09:30;;;;;;;6.63;5.35;;;;;;;;;;5114581;28;20046;-76
2022/11/17 14:11:58;;;;;;;6.78;5.30;;;;;;;;;;5114559;28;20032;-76
2022/11/17 14:14:30;;;;;;;6.53;5.53;;;;;;;;;;5114482;28;20050;-76
2022/11/17 14:16:58;;;;;;;6.65;5.07;;;;;;;;;;5114444;28;20049;-77
2022/11/17 14:19:34;;;;;;;7.45;5.60;;;;;;;;;;5114527;28;20451;-76
2022/11/17 14:22:02;;;;;;;10.20;6.28;;;;;;;;;;5114475;28;20075;-77
2022/11/17 14:24:32;;;;;;;6.97;5.75;;;;;;;;;;5114500;28;20043;-77
2022/11/17 14:27:00;;;;;;;7.13;6.07;;;;;;;;;;5114570;28;20124;-74
2022/11/17 14:29:28;;;;;;;7.07;5.43;;;;;;;;;;5114244;28;20114;-75
2022/11/17 14:31:56;;;;;;;7.32;6.32;;;;;;;;;;5114242;28;20039;-76
2022/11/17 14:34:23;;;;;;;8.93;6.05;;;;;;;;;;5114324;28;20119;-77
2022/11/17 14:36:52;;;;;;;7.45;6.65;;;;;;;;;;5114241;28;20046;-76
2022/11/17 14:39:20;;;;;;;8.65;6.25;;;;;;;;;;5114275;27;20085;-76
2022/11/17 14:41:48;;;;;;;7.97;5.97;;;;;;;;;;5114267;28;20439;-76
2022/11/17 14:44:16;;;;;;;7.00;6.30;;;;;;;;;;5114025;28;20176;-76
2022/11/17 14:46:43;;;;;;;7.93;6.57;;;;;;;;;;5114042;28;20590;-76
2022/11/17 14:49:11;;;;;;;9.85;7.07;;;;;;;;;;5114434;28;20096;-77
2022/11/17 14:51:39;;;;;;;9.60;6.85;;;;;;;;;;5115757;28;20043;-76
2022/11/17 14:54:06;;;;;;;8.63;6.40;;;;;;;;;;5115857;28;20043;-77
2022/11/17 14:56:34;;;;;;;7.88;6.50;;;;;;;;;;5115059;28;20043;-76
2022/11/17 14:59:01;;;;;;;13.68;7.55;;;;;;;;;;5113781;28;20490;-76
2022/11/17 15:01:30;;;;;;;10.70;7.85;;;;;;;;;;5113721;28;20050;-76
2022/11/17 15:03:59;;;;;;;9.73;7.53;;;;;;;;;;5113820;28;20066;-75
2022/11/17 15:06:41;;;;;;;10.98;7.75;;;;;;;;;;5113578;28;20074;-76
2022/11/17 15:09:14;;;;;;;9.65;7.72;;;;;;;;;;5113729;28;20039;-76
2022/11/17 15:11:42;;;;;;;11.23;8.02;;;;;;;;;;5096013;28;20035;-76